Terminal Aerodrome Forecast
Issued by NWS

Current Version | Previous Version | Graphics & Text | Print | Product List | Glossary On
Versions: 1 2 3 4 5 6 7 8 9 10 11 12 13 14 15 16 17 18 19 20 21 22 23
000
FTUS41 KILN 241100
TAFLCK
TAF
KLCK 241139Z 2412/2512 15005KT P6SM BKN022 OVC080
     FM241500 16007KT P6SM VCSH OVC018
     FM241700 17011KT P6SM SCT015 OVC050
     FM242100 21016G24KT P6SM -SHRA OVC015
     FM250000 25025G40KT P6SM OVC018
     FM250400 24016G26KT P6SM OVC022=

USA.gov is the U.S. government's official web portal to all federal, state and local government web resources and services.